sensor_id;sensor_type;location;lat;lon;timestamp;temperature;humidity
80238;DHT22;69544;42.138;24.742;2023-05-07T00:00:01;22.30;36.50
80238;DHT22;69544;42.138;24.742;2023-05-07T00:02:28;22.30;36.50
80238;DHT22;69544;42.138;24.742;2023-05-07T00:04:54;22.30;36.50
80238;DHT22;69544;42.138;24.742;2023-05-07T00:07:20;22.30;36.50
80238;DHT22;69544;42.138;24.742;2023-05-07T00:09:46;22.30;36.50
80238;DHT22;69544;42.138;24.742;2023-05-07T00:12:12;22.30;36.50
80238;DHT22;69544;42.138;24.742;2023-05-07T00:14:38;22.30;36.60
80238;DHT22;69544;42.138;24.742;2023-05-07T00:17:03;22.30;36.70
80238;DHT22;69544;42.138;24.742;2023-05-07T00:19:29;22.30;36.60
80238;DHT22;69544;42.138;24.742;2023-05-07T00:21:55;22.30;36.70
80238;DHT22;69544;42.138;24.742;2023-05-07T00:24:21;22.30;36.70
80238;DHT22;69544;42.138;24.742;2023-05-07T00:26:47;22.30;36.70
80238;DHT22;69544;42.138;24.742;2023-05-07T00:29:13;22.30;36.70
80238;DHT22;69544;42.138;24.742;2023-05-07T00:31:38;22.30;36.70
80238;DHT22;69544;42.138;24.742;2023-05-07T00:34:04;22.30;37.90
80238;DHT22;69544;42.138;24.742;2023-05-07T00:36:30;22.30;36.70
80238;DHT22;69544;42.138;24.742;2023-05-07T00:38:57;22.30;36.80
80238;DHT22;69544;42.138;24.742;2023-05-07T00:41:24;22.30;36.70
80238;DHT22;69544;42.138;24.742;2023-05-07T00:43:50;22.30;36.90
80238;DHT22;69544;42.138;24.742;2023-05-07T00:46:18;22.30;36.80
80238;DHT22;69544;42.138;24.742;2023-05-07T00:48:45;22.30;36.80
80238;DHT22;69544;42.138;24.742;2023-05-07T00:51:11;22.30;36.80
80238;DHT22;69544;42.138;24.742;2023-05-07T00:53:37;22.30;36.80
80238;DHT22;69544;42.138;24.742;2023-05-07T00:56:03;22.30;36.90
80238;DHT22;69544;42.138;24.742;2023-05-07T00:58:30;22.30;36.90
80238;DHT22;69544;42.138;24.742;2023-05-07T01:00:56;22.30;37.00
80238;DHT22;69544;42.138;24.742;2023-05-07T01:03:22;22.30;37.00
80238;DHT22;69544;42.138;24.742;2023-05-07T01:05:48;22.30;37.00
80238;DHT22;69544;42.138;24.742;2023-05-07T01:08:15;22.30;37.00
80238;DHT22;69544;42.138;24.742;2023-05-07T01:10:41;22.30;37.10
80238;DHT22;69544;42.138;24.742;2023-05-07T01:13:09;22.30;37.10
80238;DHT22;69544;42.138;24.742;2023-05-07T01:15:36;22.30;37.10
80238;DHT22;69544;42.138;24.742;2023-05-07T01:18:02;22.30;37.10
80238;DHT22;69544;42.138;24.742;2023-05-07T01:20:28;22.30;37.20
80238;DHT22;69544;42.138;24.742;2023-05-07T01:22:55;22.30;37.20
80238;DHT22;69544;42.138;24.742;2023-05-07T01:25:22;22.20;37.20
80238;DHT22;69544;42.138;24.742;2023-05-07T01:27:48;22.30;37.20
80238;DHT22;69544;42.138;24.742;2023-05-07T01:30:13;22.20;37.20
80238;DHT22;69544;42.138;24.742;2023-05-07T01:32:53;22.20;37.20
80238;DHT22;69544;42.138;24.742;2023-05-07T01:35:25;22.20;37.20
80238;DHT22;69544;42.138;24.742;2023-05-07T01:37:52;22.20;37.20
80238;DHT22;69544;42.138;24.742;2023-05-07T01:40:18;22.20;37.20
80238;DHT22;69544;42.138;24.742;2023-05-07T01:42:45;22.20;37.20
80238;DHT22;69544;42.138;24.742;2023-05-07T01:45:11;22.20;37.20
80238;DHT22;69544;42.138;24.742;2023-05-07T01:47:37;22.20;37.30
80238;DHT22;69544;42.138;24.742;2023-05-07T01:50:05;22.20;37.40
80238;DHT22;69544;42.138;24.742;2023-05-07T01:52:31;22.20;37.40
80238;DHT22;69544;42.138;24.742;2023-05-07T01:54:57;22.20;37.30
80238;DHT22;69544;42.138;24.742;2023-05-07T01:57:23;22.20;37.40
80238;DHT22;69544;42.138;24.742;2023-05-07T01:59:49;22.20;37.40
80238;DHT22;69544;42.138;24.742;2023-05-07T02:02:14;22.20;37.50
80238;DHT22;69544;42.138;24.742;2023-05-07T02:04:40;22.20;37.40
80238;DHT22;69544;42.138;24.742;2023-05-07T02:07:06;22.20;37.40
80238;DHT22;69544;42.138;24.742;2023-05-07T02:09:32;22.20;37.40
80238;DHT22;69544;42.138;24.742;2023-05-07T02:11:57;22.20;37.40
80238;DHT22;69544;42.138;24.742;2023-05-07T02:14:23;22.20;37.50
80238;DHT22;69544;42.138;24.742;2023-05-07T02:16:49;22.20;37.40
80238;DHT22;69544;42.138;24.742;2023-05-07T02:19:15;22.20;37.50
80238;DHT22;69544;42.138;24.742;2023-05-07T02:21:41;22.20;37.40
80238;DHT22;69544;42.138;24.742;2023-05-07T02:24:09;22.20;37.60
80238;DHT22;69544;42.138;24.742;2023-05-07T02:26:35;22.20;37.50
80238;DHT22;69544;42.138;24.742;2023-05-07T02:29:00;22.20;37.60
80238;DHT22;69544;42.138;24.742;2023-05-07T02:31:26;22.20;37.60
80238;DHT22;69544;42.138;24.742;2023-05-07T02:33:52;22.20;37.60
80238;DHT22;69544;42.138;24.742;2023-05-07T02:36:17;22.20;37.60
80238;DHT22;69544;42.138;24.742;2023-05-07T02:38:43;22.20;37.60
80238;DHT22;69544;42.138;24.742;2023-05-07T02:41:09;22.20;37.60
80238;DHT22;69544;42.138;24.742;2023-05-07T02:43:35;22.20;37.60
80238;DHT22;69544;42.138;24.742;2023-05-07T02:46:05;22.20;37.60
80238;DHT22;69544;42.138;24.742;2023-05-07T02:48:31;22.20;37.70
80238;DHT22;69544;42.138;24.742;2023-05-07T02:50:58;22.20;37.60
80238;DHT22;69544;42.138;24.742;2023-05-07T02:53:24;22.10;37.60
80238;DHT22;69544;42.138;24.742;2023-05-07T02:55:52;22.10;37.70
80238;DHT22;69544;42.138;24.742;2023-05-07T02:58:18;22.10;37.80
80238;DHT22;69544;42.138;24.742;2023-05-07T03:00:44;22.10;37.80
80238;DHT22;69544;42.138;24.742;2023-05-07T03:03:10;22.10;37.80
80238;DHT22;69544;42.138;24.742;2023-05-07T03:05:36;22.10;37.70
80238;DHT22;69544;42.138;24.742;2023-05-07T03:08:02;22.10;37.80
80238;DHT22;69544;42.138;24.742;2023-05-07T03:10:29;22.10;37.80
80238;DHT22;69544;42.138;24.742;2023-05-07T03:12:55;22.10;37.80
80238;DHT22;69544;42.138;24.742;2023-05-07T03:15:21;22.10;37.80
80238;DHT22;69544;42.138;24.742;2023-05-07T03:17:47;22.10;37.80
80238;DHT22;69544;42.138;24.742;2023-05-07T03:20:13;22.10;37.90
80238;DHT22;69544;42.138;24.742;2023-05-07T03:22:39;22.20;37.80
80238;DHT22;69544;42.138;24.742;2023-05-07T03:25:05;22.10;37.80
80238;DHT22;69544;42.138;24.742;2023-05-07T03:27:31;22.10;37.80
80238;DHT22;69544;42.138;24.742;2023-05-07T03:29:57;22.10;37.90
80238;DHT22;69544;42.138;24.742;2023-05-07T03:32:23;22.10;37.80
80238;DHT22;69544;42.138;24.742;2023-05-07T03:34:49;22.10;37.90
80238;DHT22;69544;42.138;24.742;2023-05-07T03:37:14;22.10;37.80
80238;DHT22;69544;42.138;24.742;2023-05-07T03:39:40;22.10;37.80
80238;DHT22;69544;42.138;24.742;2023-05-07T03:42:06;22.10;37.90
80238;DHT22;69544;42.138;24.742;2023-05-07T03:44:32;22.10;38.00
80238;DHT22;69544;42.138;24.742;2023-05-07T03:46:57;22.10;37.90
80238;DHT22;69544;42.138;24.742;2023-05-07T03:49:23;22.10;38.00
80238;DHT22;69544;42.138;24.742;2023-05-07T03:51:49;22.10;38.00
80238;DHT22;69544;42.138;24.742;2023-05-07T03:54:15;22.10;38.00
80238;DHT22;69544;42.138;24.742;2023-05-07T03:56:40;22.10;38.00
80238;DHT22;69544;42.138;24.742;2023-05-07T03:59:06;22.10;38.10
80238;DHT22;69544;42.138;24.742;2023-05-07T04:01:32;22.00;38.10
80238;DHT22;69544;42.138;24.742;2023-05-07T04:03:57;22.00;38.20
80238;DHT22;69544;42.138;24.742;2023-05-07T04:06:23;22.00;38.10
80238;DHT22;69544;42.138;24.742;2023-05-07T04:08:49;22.00;38.20
80238;DHT22;69544;42.138;24.742;2023-05-07T04:11:15;22.00;38.30
80238;DHT22;69544;42.138;24.742;2023-05-07T04:13:41;22.00;38.30
80238;DHT22;69544;42.138;24.742;2023-05-07T04:16:07;22.00;38.30
80238;DHT22;69544;42.138;24.742;2023-05-07T04:18:33;22.00;38.30
80238;DHT22;69544;42.138;24.742;2023-05-07T04:20:59;22.00;38.30
80238;DHT22;69544;42.138;24.742;2023-05-07T04:23:25;22.00;38.30
80238;DHT22;69544;42.138;24.742;2023-05-07T04:25:50;22.00;38.50
80238;DHT22;69544;42.138;24.742;2023-05-07T04:28:16;22.00;38.30
80238;DHT22;69544;42.138;24.742;2023-05-07T04:30:42;22.00;38.40
80238;DHT22;69544;42.138;24.742;2023-05-07T04:33:08;22.00;38.40
80238;DHT22;69544;42.138;24.742;2023-05-07T04:35:34;22.00;38.40
80238;DHT22;69544;42.138;24.742;2023-05-07T04:38:00;22.00;38.50
80238;DHT22;69544;42.138;24.742;2023-05-07T04:40:27;22.00;38.40
80238;DHT22;69544;42.138;24.742;2023-05-07T04:42:52;22.00;38.40
80238;DHT22;69544;42.138;24.742;2023-05-07T04:45:18;22.00;38.40
80238;DHT22;69544;42.138;24.742;2023-05-07T04:47:44;22.00;38.40
80238;DHT22;69544;42.138;24.742;2023-05-07T04:50:10;22.00;38.30
80238;DHT22;69544;42.138;24.742;2023-05-07T04:52:36;22.00;38.30
80238;DHT22;69544;42.138;24.742;2023-05-07T04:55:02;22.00;38.40
80238;DHT22;69544;42.138;24.742;2023-05-07T04:57:28;22.00;38.40
80238;DHT22;69544;42.138;24.742;2023-05-07T04:59:54;22.00;38.40
80238;DHT22;69544;42.138;24.742;2023-05-07T05:02:20;22.00;38.50
80238;DHT22;69544;42.138;24.742;2023-05-07T05:04:46;22.00;38.50
80238;DHT22;69544;42.138;24.742;2023-05-07T05:07:11;22.00;38.40
80238;DHT22;69544;42.138;24.742;2023-05-07T05:09:37;22.00;38.50
80238;DHT22;69544;42.138;24.742;2023-05-07T05:12:03;22.00;38.40
80238;DHT22;69544;42.138;24.742;2023-05-07T05:14:29;22.00;38.40
80238;DHT22;69544;42.138;24.742;2023-05-07T05:16:55;22.00;38.30
80238;DHT22;69544;42.138;24.742;2023-05-07T05:19:21;22.00;38.30
80238;DHT22;69544;42.138;24.742;2023-05-07T05:21:47;22.00;38.30
80238;DHT22;69544;42.138;24.742;2023-05-07T05:24:13;22.00;38.30
80238;DHT22;69544;42.138;24.742;2023-05-07T05:26:38;22.00;38.30
80238;DHT22;69544;42.138;24.742;2023-05-07T05:29:04;22.00;38.20
80238;DHT22;69544;42.138;24.742;2023-05-07T05:31:30;22.00;38.20
80238;DHT22;69544;42.138;24.742;2023-05-07T05:33:56;22.00;38.20
80238;DHT22;69544;42.138;24.742;2023-05-07T05:36:22;22.00;38.20
80238;DHT22;69544;42.138;24.742;2023-05-07T05:38:48;22.00;38.10
80238;DHT22;69544;42.138;24.742;2023-05-07T05:41:13;22.00;38.10
80238;DHT22;69544;42.138;24.742;2023-05-07T05:43:39;22.10;38.10
80238;DHT22;69544;42.138;24.742;2023-05-07T05:46:05;22.10;38.10
80238;DHT22;69544;42.138;24.742;2023-05-07T05:48:31;22.10;38.20
80238;DHT22;69544;42.138;24.742;2023-05-07T05:50:57;22.10;38.10
80238;DHT22;69544;42.138;24.742;2023-05-07T05:53:23;22.10;38.10
80238;DHT22;69544;42.138;24.742;2023-05-07T05:55:48;22.10;38.00
80238;DHT22;69544;42.138;24.742;2023-05-07T05:58:14;22.10;38.00
80238;DHT22;69544;42.138;24.742;2023-05-07T06:00:40;22.10;38.00
80238;DHT22;69544;42.138;24.742;2023-05-07T06:03:06;22.10;38.00
80238;DHT22;69544;42.138;24.742;2023-05-07T06:05:32;22.10;38.00
80238;DHT22;69544;42.138;24.742;2023-05-07T06:07:58;22.10;38.00
80238;DHT22;69544;42.138;24.742;2023-05-07T06:10:23;22.10;37.90
80238;DHT22;69544;42.138;24.742;2023-05-07T06:12:49;22.10;37.90
80238;DHT22;69544;42.138;24.742;2023-05-07T06:15:15;22.10;37.90
80238;DHT22;69544;42.138;24.742;2023-05-07T06:17:41;22.20;37.90
80238;DHT22;69544;42.138;24.742;2023-05-07T06:20:07;22.10;37.80
80238;DHT22;69544;42.138;24.742;2023-05-07T06:22:36;22.20;37.90
80238;DHT22;69544;42.138;24.742;2023-05-07T06:25:02;22.20;38.00
80238;DHT22;69544;42.138;24.742;2023-05-07T06:27:28;22.10;37.80
80238;DHT22;69544;42.138;24.742;2023-05-07T06:29:53;22.10;37.80
80238;DHT22;69544;42.138;24.742;2023-05-07T06:32:20;22.10;37.80
80238;DHT22;69544;42.138;24.742;2023-05-07T06:34:45;22.10;37.70
80238;DHT22;69544;42.138;24.742;2023-05-07T06:37:11;22.20;38.80
80238;DHT22;69544;42.138;24.742;2023-05-07T06:39:37;22.20;37.70
80238;DHT22;69544;42.138;24.742;2023-05-07T06:42:03;22.20;37.70
80238;DHT22;69544;42.138;24.742;2023-05-07T06:44:30;22.20;37.70
80238;DHT22;69544;42.138;24.742;2023-05-07T06:46:59;22.10;37.70
80238;DHT22;69544;42.138;24.742;2023-05-07T06:49:25;22.20;37.70
80238;DHT22;69544;42.138;24.742;2023-05-07T06:51:51;22.20;37.70
80238;DHT22;69544;42.138;24.742;2023-05-07T06:54:21;22.20;37.70
80238;DHT22;69544;42.138;24.742;2023-05-07T06:56:46;22.20;38.80
80238;DHT22;69544;42.138;24.742;2023-05-07T06:59:15;22.20;37.70
80238;DHT22;69544;42.138;24.742;2023-05-07T07:01:41;22.20;37.70
80238;DHT22;69544;42.138;24.742;2023-05-07T07:04:07;22.20;37.70
80238;DHT22;69544;42.138;24.742;2023-05-07T07:06:32;22.20;37.70
80238;DHT22;69544;42.138;24.742;2023-05-07T07:08:59;22.20;37.70
80238;DHT22;69544;42.138;24.742;2023-05-07T07:11:25;22.20;37.60
80238;DHT22;69544;42.138;24.742;2023-05-07T07:13:51;22.20;37.60
80238;DHT22;69544;42.138;24.742;2023-05-07T07:16:20;22.20;37.60
80238;DHT22;69544;42.138;24.742;2023-05-07T07:18:46;22.20;37.60
80238;DHT22;69544;42.138;24.742;2023-05-07T07:21:11;22.20;37.60
80238;DHT22;69544;42.138;24.742;2023-05-07T07:23:38;22.20;37.60
80238;DHT22;69544;42.138;24.742;2023-05-07T07:26:04;22.20;37.60
80238;DHT22;69544;42.138;24.742;2023-05-07T07:28:31;22.20;37.60
80238;DHT22;69544;42.138;24.742;2023-05-07T07:30:57;22.20;38.70
80238;DHT22;69544;42.138;24.742;2023-05-07T07:33:23;22.20;37.60
80238;DHT22;69544;42.138;24.742;2023-05-07T07:35:48;22.20;37.60
80238;DHT22;69544;42.138;24.742;2023-05-07T07:38:14;22.20;37.60
80238;DHT22;69544;42.138;24.742;2023-05-07T07:40:40;22.20;37.60
80238;DHT22;69544;42.138;24.742;2023-05-07T07:43:06;22.20;37.50
80238;DHT22;69544;42.138;24.742;2023-05-07T07:45:31;22.20;37.50
80238;DHT22;69544;42.138;24.742;2023-05-07T07:47:57;22.20;37.50
80238;DHT22;69544;42.138;24.742;2023-05-07T07:50:23;22.20;37.60
80238;DHT22;69544;42.138;24.742;2023-05-07T07:52:49;22.20;37.60
80238;DHT22;69544;42.138;24.742;2023-05-07T07:55:14;22.20;37.50
80238;DHT22;69544;42.138;24.742;2023-05-07T07:57:46;22.20;37.60
80238;DHT22;69544;42.138;24.742;2023-05-07T08:00:12;22.20;37.60
80238;DHT22;69544;42.138;24.742;2023-05-07T08:02:38;22.20;37.70
80238;DHT22;69544;42.138;24.742;2023-05-07T08:05:04;22.20;37.70
80238;DHT22;69544;42.138;24.742;2023-05-07T08:07:30;22.20;37.60
80238;DHT22;69544;42.138;24.742;2023-05-07T08:09:55;22.20;37.60
80238;DHT22;69544;42.138;24.742;2023-05-07T08:12:22;22.20;37.50
80238;DHT22;69544;42.138;24.742;2023-05-07T08:14:47;22.20;37.50
80238;DHT22;69544;42.138;24.742;2023-05-07T08:17:13;22.30;37.50
80238;DHT22;69544;42.138;24.742;2023-05-07T08:19:42;22.20;37.40
80238;DHT22;69544;42.138;24.742;2023-05-07T08:22:08;22.20;37.40
80238;DHT22;69544;42.138;24.742;2023-05-07T08:24:34;22.30;37.50
80238;DHT22;69544;42.138;24.742;2023-05-07T08:27:00;22.30;37.40
80238;DHT22;69544;42.138;24.742;2023-05-07T08:29:26;22.30;37.40
80238;DHT22;69544;42.138;24.742;2023-05-07T08:31:51;22.30;37.40
80238;DHT22;69544;42.138;24.742;2023-05-07T08:34:17;22.30;37.40
80238;DHT22;69544;42.138;24.742;2023-05-07T08:36:43;22.30;37.30
80238;DHT22;69544;42.138;24.742;2023-05-07T08:39:09;22.30;37.30
80238;DHT22;69544;42.138;24.742;2023-05-07T08:41:34;22.30;37.30
80238;DHT22;69544;42.138;24.742;2023-05-07T08:44:03;22.30;37.20
80238;DHT22;69544;42.138;24.742;2023-05-07T08:46:31;22.30;37.30
80238;DHT22;69544;42.138;24.742;2023-05-07T08:48:57;22.30;37.20
80238;DHT22;69544;42.138;24.742;2023-05-07T08:51:23;22.30;37.20
80238;DHT22;69544;42.138;24.742;2023-05-07T08:53:49;22.30;37.10
80238;DHT22;69544;42.138;24.742;2023-05-07T08:56:16;22.30;37.10
80238;DHT22;69544;42.138;24.742;2023-05-07T08:58:43;22.30;37.10
80238;DHT22;69544;42.138;24.742;2023-05-07T09:01:12;22.30;37.10
80238;DHT22;69544;42.138;24.742;2023-05-07T09:03:39;22.30;37.00
80238;DHT22;69544;42.138;24.742;2023-05-07T09:06:05;22.30;37.00
80238;DHT22;69544;42.138;24.742;2023-05-07T09:08:33;22.30;37.00
80238;DHT22;69544;42.138;24.742;2023-05-07T09:10:59;22.30;37.00
80238;DHT22;69544;42.138;24.742;2023-05-07T09:13:26;22.30;36.90
80238;DHT22;69544;42.138;24.742;2023-05-07T09:15:52;22.30;36.90
80238;DHT22;69544;42.138;24.742;2023-05-07T09:18:18;22.40;36.90
80238;DHT22;69544;42.138;24.742;2023-05-07T09:20:44;22.40;36.90
80238;DHT22;69544;42.138;24.742;2023-05-07T09:23:10;22.40;36.90
80238;DHT22;69544;42.138;24.742;2023-05-07T09:25:36;22.40;36.80
80238;DHT22;69544;42.138;24.742;2023-05-07T09:28:03;22.40;36.80
80238;DHT22;69544;42.138;24.742;2023-05-07T09:30:33;22.40;36.80
80238;DHT22;69544;42.138;24.742;2023-05-07T09:33:00;22.40;36.80
80238;DHT22;69544;42.138;24.742;2023-05-07T09:35:27;22.40;36.80
80238;DHT22;69544;42.138;24.742;2023-05-07T09:37:54;22.40;36.70
80238;DHT22;69544;42.138;24.742;2023-05-07T09:40:24;22.40;36.70
80238;DHT22;69544;42.138;24.742;2023-05-07T09:42:50;22.40;36.80
80238;DHT22;69544;42.138;24.742;2023-05-07T09:45:30;22.40;36.70
80238;DHT22;69544;42.138;24.742;2023-05-07T09:47:57;22.40;36.70
80238;DHT22;69544;42.138;24.742;2023-05-07T09:50:28;22.40;36.70
80238;DHT22;69544;42.138;24.742;2023-05-07T09:52:55;22.40;36.70
80238;DHT22;69544;42.138;24.742;2023-05-07T09:55:22;22.40;36.60
80238;DHT22;69544;42.138;24.742;2023-05-07T09:57:50;22.40;36.60
80238;DHT22;69544;42.138;24.742;2023-05-07T10:00:19;22.40;36.60
80238;DHT22;69544;42.138;24.742;2023-05-07T10:02:46;22.40;36.50
80238;DHT22;69544;42.138;24.742;2023-05-07T10:05:14;22.40;37.60
80238;DHT22;69544;42.138;24.742;2023-05-07T10:07:41;22.40;36.50
80238;DHT22;69544;42.138;24.742;2023-05-07T10:10:07;22.40;36.50
80238;DHT22;69544;42.138;24.742;2023-05-07T10:12:34;22.50;36.50
80238;DHT22;69544;42.138;24.742;2023-05-07T10:15:07;22.40;36.40
80238;DHT22;69544;42.138;24.742;2023-05-07T10:17:39;22.50;36.50
80238;DHT22;69544;42.138;24.742;2023-05-07T10:20:05;22.50;36.50
80238;DHT22;69544;42.138;24.742;2023-05-07T10:22:43;22.50;36.50
80238;DHT22;69544;42.138;24.742;2023-05-07T10:25:16;22.50;36.50
80238;DHT22;69544;42.138;24.742;2023-05-07T10:27:44;22.50;36.40
80238;DHT22;69544;42.138;24.742;2023-05-07T10:33:03;22.50;36.40
80238;DHT22;69544;42.138;24.742;2023-05-07T10:35:41;22.50;36.40
80238;DHT22;69544;42.138;24.742;2023-05-07T10:38:08;22.50;36.40
80238;DHT22;69544;42.138;24.742;2023-05-07T10:40:35;22.50;36.40
80238;DHT22;69544;42.138;24.742;2023-05-07T10:43:04;22.50;36.30
80238;DHT22;69544;42.138;24.742;2023-05-07T10:45:32;22.50;36.30
80238;DHT22;69544;42.138;24.742;2023-05-07T10:48:16;22.50;36.40
80238;DHT22;69544;42.138;24.742;2023-05-07T10:50:43;22.50;36.40
80238;DHT22;69544;42.138;24.742;2023-05-07T10:55:49;22.50;36.30
80238;DHT22;69544;42.138;24.742;2023-05-07T11:00:47;22.50;36.30
80238;DHT22;69544;42.138;24.742;2023-05-07T11:03:14;22.50;36.20
80238;DHT22;69544;42.138;24.742;2023-05-07T11:05:41;22.50;36.20
80238;DHT22;69544;42.138;24.742;2023-05-07T11:08:08;22.50;36.20
80238;DHT22;69544;42.138;24.742;2023-05-07T11:10:51;22.60;36.30
80238;DHT22;69544;42.138;24.742;2023-05-07T11:13:18;22.60;36.20
80238;DHT22;69544;42.138;24.742;2023-05-07T11:15:48;22.60;36.20
80238;DHT22;69544;42.138;24.742;2023-05-07T11:18:15;22.60;36.20
80238;DHT22;69544;42.138;24.742;2023-05-07T11:20:57;22.60;36.10
80238;DHT22;69544;42.138;24.742;2023-05-07T11:26:02;22.70;36.20
80238;DHT22;69544;42.138;24.742;2023-05-07T11:28:29;22.70;36.10
80238;DHT22;69544;42.138;24.742;2023-05-07T11:30:56;22.70;35.90
80238;DHT22;69544;42.138;24.742;2023-05-07T11:33:22;22.80;35.80
80238;DHT22;69544;42.138;24.742;2023-05-07T11:35:48;22.90;35.90
80238;DHT22;69544;42.138;24.742;2023-05-07T11:38:17;22.90;35.70
80238;DHT22;69544;42.138;24.742;2023-05-07T11:40:51;22.90;35.50
80238;DHT22;69544;42.138;24.742;2023-05-07T11:43:17;23.00;35.40
80238;DHT22;69544;42.138;24.742;2023-05-07T11:45:44;23.00;35.30
80238;DHT22;69544;42.138;24.742;2023-05-07T11:48:10;23.00;35.30
80238;DHT22;69544;42.138;24.742;2023-05-07T11:50:35;23.10;35.10
80238;DHT22;69544;42.138;24.742;2023-05-07T11:53:07;23.20;35.10
80238;DHT22;69544;42.138;24.742;2023-05-07T11:55:33;23.20;34.80
80238;DHT22;69544;42.138;24.742;2023-05-07T11:57:59;23.30;34.70
80238;DHT22;69544;42.138;24.742;2023-05-07T12:00:25;23.30;34.60
80238;DHT22;69544;42.138;24.742;2023-05-07T12:02:50;23.40;34.50
80238;DHT22;69544;42.138;24.742;2023-05-07T12:05:16;23.40;34.50
80238;DHT22;69544;42.138;24.742;2023-05-07T12:07:42;23.40;34.30
80238;DHT22;69544;42.138;24.742;2023-05-07T12:10:08;23.40;34.30
80238;DHT22;69544;42.138;24.742;2023-05-07T12:12:40;23.40;34.30
80238;DHT22;69544;42.138;24.742;2023-05-07T12:15:07;23.50;34.30
80238;DHT22;69544;42.138;24.742;2023-05-07T12:17:33;23.40;34.30
80238;DHT22;69544;42.138;24.742;2023-05-07T12:20:00;23.50;34.30
80238;DHT22;69544;42.138;24.742;2023-05-07T12:22:26;23.50;34.40
80238;DHT22;69544;42.138;24.742;2023-05-07T12:24:58;23.50;35.30
80238;DHT22;69544;42.138;24.742;2023-05-07T12:27:25;23.60;34.20
80238;DHT22;69544;42.138;24.742;2023-05-07T12:29:51;23.60;34.10
80238;DHT22;69544;42.138;24.742;2023-05-07T12:32:18;23.60;34.00
80238;DHT22;69544;42.138;24.742;2023-05-07T12:34:45;23.60;34.00
80238;DHT22;69544;42.138;24.742;2023-05-07T12:37:11;23.60;34.00
80238;DHT22;69544;42.138;24.742;2023-05-07T12:39:42;23.60;34.00
80238;DHT22;69544;42.138;24.742;2023-05-07T12:42:20;23.70;34.00
80238;DHT22;69544;42.138;24.742;2023-05-07T12:44:51;23.70;34.00
80238;DHT22;69544;42.138;24.742;2023-05-07T12:47:17;23.70;33.90
80238;DHT22;69544;42.138;24.742;2023-05-07T12:49:43;23.80;33.90
80238;DHT22;69544;42.138;24.742;2023-05-07T12:52:11;23.80;33.80
80238;DHT22;69544;42.138;24.742;2023-05-07T12:54:38;23.80;33.80
80238;DHT22;69544;42.138;24.742;2023-05-07T12:57:10;23.90;33.80
80238;DHT22;69544;42.138;24.742;2023-05-07T12:59:38;23.90;33.70
80238;DHT22;69544;42.138;24.742;2023-05-07T13:02:04;23.90;33.60
80238;DHT22;69544;42.138;24.742;2023-05-07T13:04:30;24.00;33.60
80238;DHT22;69544;42.138;24.742;2023-05-07T13:06:56;24.00;33.60
80238;DHT22;69544;42.138;24.742;2023-05-07T13:09:21;24.00;33.50
80238;DHT22;69544;42.138;24.742;2023-05-07T13:11:47;24.10;33.50
80238;DHT22;69544;42.138;24.742;2023-05-07T13:14:13;24.10;33.50
80238;DHT22;69544;42.138;24.742;2023-05-07T13:16:39;24.20;33.40
80238;DHT22;69544;42.138;24.742;2023-05-07T13:19:04;24.10;33.30
80238;DHT22;69544;42.138;24.742;2023-05-07T13:21:30;24.20;33.30
80238;DHT22;69544;42.138;24.742;2023-05-07T13:23:59;24.20;33.30
80238;DHT22;69544;42.138;24.742;2023-05-07T13:26:25;24.20;33.20
80238;DHT22;69544;42.138;24.742;2023-05-07T13:28:54;24.20;33.20
80238;DHT22;69544;42.138;24.742;2023-05-07T13:31:20;24.20;33.30
80238;DHT22;69544;42.138;24.742;2023-05-07T13:33:46;24.20;34.40
80238;DHT22;69544;42.138;24.742;2023-05-07T13:36:12;24.20;33.20
80238;DHT22;69544;42.138;24.742;2023-05-07T13:38:39;24.20;33.20
80238;DHT22;69544;42.138;24.742;2023-05-07T13:41:05;24.20;33.20
80238;DHT22;69544;42.138;24.742;2023-05-07T13:43:30;24.20;33.20
80238;DHT22;69544;42.138;24.742;2023-05-07T13:45:59;24.20;33.20
80238;DHT22;69544;42.138;24.742;2023-05-07T13:48:24;24.20;33.30
80238;DHT22;69544;42.138;24.742;2023-05-07T13:50:50;24.10;33.30
80238;DHT22;69544;42.138;24.742;2023-05-07T13:53:17;24.20;33.40
80238;DHT22;69544;42.138;24.742;2023-05-07T13:55:44;24.10;33.40
80238;DHT22;69544;42.138;24.742;2023-05-07T13:58:13;24.20;33.50
80238;DHT22;69544;42.138;24.742;2023-05-07T14:00:39;24.20;33.50
80238;DHT22;69544;42.138;24.742;2023-05-07T14:03:05;24.10;33.50
80238;DHT22;69544;42.138;24.742;2023-05-07T14:05:34;24.10;33.50
80238;DHT22;69544;42.138;24.742;2023-05-07T14:08:01;24.20;33.50
80238;DHT22;69544;42.138;24.742;2023-05-07T14:10:27;24.10;33.50
80238;DHT22;69544;42.138;24.742;2023-05-07T14:12:52;24.20;33.60
80238;DHT22;69544;42.138;24.742;2023-05-07T14:15:18;24.20;33.60
80238;DHT22;69544;42.138;24.742;2023-05-07T14:17:44;24.20;33.50
80238;DHT22;69544;42.138;24.742;2023-05-07T14:20:10;24.30;33.50
80238;DHT22;69544;42.138;24.742;2023-05-07T14:22:36;24.30;33.60
80238;DHT22;69544;42.138;24.742;2023-05-07T14:25:02;24.30;33.50
80238;DHT22;69544;42.138;24.742;2023-05-07T14:27:28;24.30;33.40
80238;DHT22;69544;42.138;24.742;2023-05-07T14:29:54;24.30;33.40
80238;DHT22;69544;42.138;24.742;2023-05-07T14:32:21;24.40;33.40
80238;DHT22;69544;42.138;24.742;2023-05-07T14:34:46;24.40;33.40
80238;DHT22;69544;42.138;24.742;2023-05-07T14:37:13;24.40;33.30
80238;DHT22;69544;42.138;24.742;2023-05-07T14:39:39;24.40;33.30
80238;DHT22;69544;42.138;24.742;2023-05-07T14:42:05;24.50;33.40
80238;DHT22;69544;42.138;24.742;2023-05-07T14:44:35;24.50;33.30
80238;DHT22;69544;42.138;24.742;2023-05-07T14:47:01;24.50;33.30
80238;DHT22;69544;42.138;24.742;2023-05-07T14:49:27;24.50;33.20
80238;DHT22;69544;42.138;24.742;2023-05-07T14:51:53;24.50;33.20
80238;DHT22;69544;42.138;24.742;2023-05-07T14:54:19;24.50;33.10
80238;DHT22;69544;42.138;24.742;2023-05-07T14:56:45;24.50;33.10
80238;DHT22;69544;42.138;24.742;2023-05-07T14:59:11;24.50;33.10
80238;DHT22;69544;42.138;24.742;2023-05-07T15:01:37;24.50;33.10
80238;DHT22;69544;42.138;24.742;2023-05-07T15:04:04;24.50;33.00
80238;DHT22;69544;42.138;24.742;2023-05-07T15:06:31;24.50;34.10
80238;DHT22;69544;42.138;24.742;2023-05-07T15:08:57;24.50;33.00
80238;DHT22;69544;42.138;24.742;2023-05-07T15:11:23;24.50;33.10
80238;DHT22;69544;42.138;24.742;2023-05-07T15:13:49;24.60;33.10
80238;DHT22;69544;42.138;24.742;2023-05-07T15:16:15;24.60;33.10
80238;DHT22;69544;42.138;24.742;2023-05-07T15:18:42;24.60;33.10
80238;DHT22;69544;42.138;24.742;2023-05-07T15:21:08;24.60;33.10